Time;durP1;ratioP1;P1;durP2;ratioP2;P2;SDS_P1;SDS_P2;PMS_P1;PMS_P2;Temp;Humidity;BMP_temperature;BMP_pressure;BME280_temperature;BME280_humidity;BME280_pressure;Samples;Min_cycle;Max_cycle;Signal;HPM_P1;HPM_P2
2021/08/08 00:01:11;;;;;;;3.87;0.80;;;17.00;99.90;;;;;;6246301;23;20176;-77
2021/08/08 00:03:38;;;;;;;6.97;1.00;;;17.00;99.90;;;;;;6245782;23;20182;-76
2021/08/08 00:06:04;;;;;;;3.97;0.90;;;17.00;99.90;;;;;;6246451;23;20186;-76
2021/08/08 00:08:33;;;;;;;1.83;0.80;;;17.00;99.90;;;;;;6246393;23;20195;-76
2021/08/08 00:11:00;;;;;;;3.30;1.00;;;16.90;99.90;;;;;;6245851;23;20265;-76
2021/08/08 00:13:27;;;;;;;4.10;1.10;;;16.80;99.90;;;;;;6245737;23;20631;-75
2021/08/08 00:15:56;;;;;;;4.13;1.17;;;16.90;99.90;;;;;;6245793;23;20226;-75
2021/08/08 00:18:22;;;;;;;2.73;0.77;;;16.90;99.90;;;;;;6245798;23;20203;-76
2021/08/08 00:20:49;;;;;;;3.43;0.80;;;16.80;99.90;;;;;;6246098;23;20179;-77
2021/08/08 00:23:16;;;;;;;2.77;1.00;;;16.90;99.90;;;;;;6245566;23;20460;-77
2021/08/08 00:25:44;;;;;;;5.93;1.30;;;16.90;99.90;;;;;;6245963;23;20179;-79
2021/08/08 00:28:11;;;;;;;3.70;1.23;;;16.90;99.90;;;;;;6246092;23;20176;-76
2021/08/08 00:30:38;;;;;;;1.83;0.63;;;16.80;99.90;;;;;;6246540;23;20519;-80
2021/08/08 00:33:06;;;;;;;3.43;0.80;;;16.70;99.90;;;;;;6245931;23;20179;-77
2021/08/08 00:35:33;;;;;;;4.03;0.60;;;16.70;99.90;;;;;;6246516;23;20175;-77
2021/08/08 00:37:59;;;;;;;2.90;0.70;;;16.70;99.90;;;;;;6245936;23;20255;-77
2021/08/08 00:40:27;;;;;;;4.40;0.87;;;16.50;99.90;;;;;;6245895;23;20210;-76
2021/08/08 00:42:54;;;;;;;3.97;1.17;;;16.50;99.90;;;;;;6245520;23;20182;-77
2021/08/08 00:45:22;;;;;;;3.73;0.70;;;16.40;99.90;;;;;;6245976;23;20182;-77
2021/08/08 00:47:49;;;;;;;6.47;0.97;;;16.50;99.90;;;;;;6245932;23;20182;-77
2021/08/08 00:50:17;;;;;;;4.40;0.80;;;16.40;99.90;;;;;;6246266;23;20199;-76
2021/08/08 00:52:44;;;;;;;2.80;0.90;;;16.30;99.90;;;;;;6246044;23;20182;-77
2021/08/08 00:55:12;;;;;;;3.40;0.90;;;16.20;99.90;;;;;;6245680;23;20175;-77
2021/08/08 00:57:39;;;;;;;7.37;1.03;;;16.20;99.90;;;;;;6245877;23;20175;-76
2021/08/08 01:00:08;;;;;;;4.27;0.90;;;16.10;99.90;;;;;;6245414;23;20195;-76
2021/08/08 01:02:38;;;;;;;5.03;0.80;;;16.10;99.90;;;;;;6245354;23;20198;-76
2021/08/08 01:05:08;;;;;;;6.63;0.80;;;16.10;99.90;;;;;;6245501;23;20631;-76
2021/08/08 01:07:41;;;;;;;2.30;0.63;;;16.10;99.90;;;;;;6245991;23;20176;-76
2021/08/08 01:10:09;;;;;;;2.30;0.70;;;16.10;99.90;;;;;;6245562;23;20255;-77
2021/08/08 01:12:38;;;;;;;2.23;0.80;;;16.00;99.90;;;;;;6245150;23;20630;-76
2021/08/08 01:15:06;;;;;;;2.80;0.70;;;16.00;99.90;;;;;;6245826;23;20186;-76
2021/08/08 01:17:33;;;;;;;6.83;1.10;;;16.00;99.90;;;;;;6245776;23;20186;-76
2021/08/08 01:20:03;;;;;;;2.83;0.67;;;16.00;99.90;;;;;;6244929;23;20203;-76
2021/08/08 01:22:32;;;;;;;5.00;0.80;;;15.90;99.90;;;;;;6245007;23;20176;-76
2021/08/08 01:25:06;;;;;;;6.27;1.07;;;15.90;99.90;;;;;;6245240;23;20182;-76
2021/08/08 01:27:33;;;;;;;3.13;0.80;;;15.90;99.90;;;;;;6245405;23;20642;-77
2021/08/08 01:30:00;;;;;;;6.03;1.00;;;16.00;99.90;;;;;;6245521;23;20200;-76
2021/08/08 01:32:29;;;;;;;3.67;1.00;;;16.00;99.90;;;;;;6245332;23;20186;-76
2021/08/08 01:34:56;;;;;;;4.43;0.90;;;16.10;99.90;;;;;;6244843;23;20183;-77
2021/08/08 01:37:23;;;;;;;2.70;0.70;;;16.20;99.90;;;;;;6245438;23;20176;-77
2021/08/08 01:40:01;;;;;;;5.90;1.13;;;16.20;99.90;;;;;;6245267;23;20200;-77
2021/08/08 01:42:30;;;;;;;3.37;0.90;;;16.30;99.90;;;;;;6244809;23;20189;-77
2021/08/08 01:44:57;;;;;;;6.10;1.00;;;16.20;99.90;;;;;;6245106;23;20637;-77
2021/08/08 01:47:27;;;;;;;6.53;0.90;;;16.30;99.90;;;;;;6245257;23;20183;-77
2021/08/08 01:49:55;;;;;;;2.60;0.80;;;16.30;99.90;;;;;;6245348;23;20202;-76
2021/08/08 01:52:23;;;;;;;5.07;0.80;;;16.30;99.90;;;;;;6245020;23;20209;-77
2021/08/08 01:54:50;;;;;;;1.53;0.70;;;16.30;99.90;;;;;;6244627;23;20183;-76
2021/08/08 01:57:17;;;;;;;2.00;0.90;;;16.30;99.90;;;;;;6245501;23;20180;-76
2021/08/08 01:59:46;;;;;;;2.33;1.30;;;16.30;99.90;;;;;;6245194;23;20206;-76
2021/08/08 02:02:15;;;;;;;4.50;0.77;;;16.30;99.90;;;;;;6244572;23;20231;-76
2021/08/08 02:04:43;;;;;;;3.47;1.00;;;16.30;99.90;;;;;;6244834;23;20182;-76
2021/08/08 02:07:12;;;;;;;5.77;1.03;;;16.30;99.90;;;;;;6244889;23;20186;-76
2021/08/08 02:09:39;;;;;;;1.80;0.80;;;16.30;99.90;;;;;;6245314;23;20195;-75
2021/08/08 02:12:07;;;;;;;5.00;1.23;;;16.30;99.90;;;;;;6245022;23;20623;-77
2021/08/08 02:14:34;;;;;;;7.30;1.17;;;16.30;99.90;;;;;;6245017;23;20176;-76
2021/08/08 02:17:02;;;;;;;7.40;1.40;;;16.40;99.90;;;;;;6244644;23;20179;-76
2021/08/08 02:19:29;;;;;;;4.30;1.17;;;16.40;99.90;;;;;;6245154;23;20222;-76
2021/08/08 02:21:57;;;;;;;6.53;1.00;;;16.40;99.90;;;;;;6244766;23;20203;-76
2021/08/08 02:24:24;;;;;;;3.37;0.90;;;16.40;99.90;;;;;;6244934;23;20176;-76
2021/08/08 02:26:51;;;;;;;6.53;1.10;;;16.40;99.90;;;;;;6244817;23;20176;-76
2021/08/08 02:29:17;;;;;;;4.40;1.13;;;16.50;99.90;;;;;;6244958;23;20199;-77
2021/08/08 02:31:46;;;;;;;4.43;0.90;;;16.50;99.90;;;;;;6244303;23;20631;-77
2021/08/08 02:34:14;;;;;;;3.87;0.70;;;16.40;99.90;;;;;;6245384;23;20176;-76
2021/08/08 02:36:41;;;;;;;4.70;1.07;;;16.40;99.90;;;;;;6244861;23;20180;-76
2021/08/08 02:39:08;;;;;;;4.07;0.60;;;16.40;99.90;;;;;;6244565;23;20199;-77
2021/08/08 02:41:35;;;;;;;4.93;1.10;;;16.40;99.90;;;;;;6246900;23;20199;-77
2021/08/08 02:44:02;;;;;;;3.67;1.30;;;16.40;99.90;;;;;;6247321;23;20176;-77
2021/08/08 02:46:30;;;;;;;4.50;1.00;;;16.30;99.90;;;;;;6245792;23;20175;-76
2021/08/08 02:48:56;;;;;;;2.67;1.40;;;16.20;99.90;;;;;;6245837;23;20196;-77
2021/08/08 02:51:25;;;;;;;3.63;0.90;;;16.20;99.90;;;;;;6246565;23;20495;-76
2021/08/08 02:53:51;;;;;;;6.53;1.33;;;16.30;99.90;;;;;;6246472;23;20182;-77
2021/08/08 02:56:18;;;;;;;1.50;0.93;;;16.30;99.90;;;;;;6247656;23;20180;-77
2021/08/08 02:58:45;;;;;;;4.60;1.00;;;16.20;99.90;;;;;;6246612;23;20195;-76
2021/08/08 03:01:12;;;;;;;6.33;1.30;;;16.20;99.90;;;;;;6246882;23;20204;-77
2021/08/08 03:03:39;;;;;;;2.67;0.80;;;16.20;99.90;;;;;;6246169;23;20556;-76
2021/08/08 03:06:10;;;;;;;2.23;0.60;;;16.20;99.90;;;;;;6246887;23;20233;-76
2021/08/08 03:08:39;;;;;;;3.03;1.37;;;16.20;99.90;;;;;;6246427;23;20203;-76
2021/08/08 03:11:06;;;;;;;4.33;1.50;;;16.30;99.90;;;;;;6246656;23;20190;-76
2021/08/08 03:13:32;;;;;;;5.13;1.03;;;16.30;99.90;;;;;;6246372;23;20630;-77
2021/08/08 03:15:59;;;;;;;5.90;1.00;;;16.30;99.90;;;;;;6247494;23;20179;-78
2021/08/08 03:18:26;;;;;;;6.23;1.17;;;16.30;99.90;;;;;;6246723;23;20203;-76
2021/08/08 03:20:53;;;;;;;5.10;1.00;;;16.30;99.90;;;;;;6246501;23;20226;-76
2021/08/08 03:23:20;;;;;;;5.03;1.23;;;16.20;99.90;;;;;;6246300;23;20175;-76
2021/08/08 03:25:48;;;;;;;4.73;0.90;;;16.10;99.90;;;;;;6246505;23;20186;-77
2021/08/08 03:28:15;;;;;;;6.43;1.10;;;16.20;99.90;;;;;;6246108;23;20199;-76
2021/08/08 03:30:42;;;;;;;5.40;0.77;;;16.20;99.90;;;;;;6248406;23;20175;-76
2021/08/08 03:33:09;;;;;;;5.57;0.90;;;16.20;99.90;;;;;;6247087;23;20175;-76
2021/08/08 03:35:35;;;;;;;3.87;1.23;;;16.20;99.90;;;;;;6247810;23;20182;-77
2021/08/08 03:38:02;;;;;;;4.83;1.30;;;16.10;99.90;;;;;;6246078;23;20214;-76
2021/08/08 03:40:29;;;;;;;5.20;1.10;;;16.10;99.90;;;;;;6246434;23;20211;-79
2021/08/08 03:42:57;;;;;;;2.10;0.97;;;16.10;99.90;;;;;;6246643;23;20207;-77
2021/08/08 03:45:24;;;;;;;3.93;0.93;;;16.10;99.90;;;;;;6246330;23;20179;-77
2021/08/08 03:47:51;;;;;;;3.10;0.90;;;16.10;99.90;;;;;;6245957;23;20182;-76
2021/08/08 03:50:17;;;;;;;2.53;0.90;;;16.10;99.90;;;;;;6246444;23;20196;-77
2021/08/08 03:52:44;;;;;;;4.83;1.07;;;16.10;99.90;;;;;;6245878;23;20638;-76
2021/08/08 03:55:12;;;;;;;2.23;1.10;;;16.20;99.90;;;;;;6246241;23;20179;-77
2021/08/08 03:57:38;;;;;;;7.07;1.27;;;16.30;99.90;;;;;;6246590;23;20176;-77
2021/08/08 04:00:08;;;;;;;3.13;0.80;;;16.30;99.90;;;;;;6245994;23;20810;-77
2021/08/08 04:02:35;;;;;;;5.57;1.23;;;16.40;99.90;;;;;;6245689;23;20203;-76
2021/08/08 04:05:02;;;;;;;4.03;0.87;;;16.50;99.90;;;;;;6246667;23;20186;-77
2021/08/08 04:07:28;;;;;;;9.60;1.20;;;16.50;99.90;;;;;;6246252;23;20262;-77
2021/08/08 04:09:55;;;;;;;5.83;1.10;;;16.40;99.90;;;;;;6246561;23;20199;-77
2021/08/08 04:12:22;;;;;;;2.90;1.10;;;16.50;99.90;;;;;;6246059;23;20182;-75
2021/08/08 04:14:49;;;;;;;5.20;0.80;;;16.50;99.90;;;;;;6245929;23;20266;-76
2021/08/08 04:17:17;;;;;;;5.73;0.77;;;16.50;99.90;;;;;;6245728;23;20175;-77
2021/08/08 04:19:43;;;;;;;5.10;0.70;;;16.40;99.90;;;;;;6245510;23;20237;-76
2021/08/08 04:22:10;;;;;;;1.87;0.80;;;16.30;99.90;;;;;;6246280;23;20208;-76
2021/08/08 04:24:38;;;;;;;7.00;0.93;;;16.30;99.90;;;;;;6245750;23;20201;-76
2021/08/08 04:27:05;;;;;;;2.63;1.00;;;16.20;99.90;;;;;;6245534;23;20658;-75
2021/08/08 04:29:32;;;;;;;11.07;1.20;;;16.20;99.90;;;;;;6246257;23;20195;-75
2021/08/08 04:32:00;;;;;;;6.97;1.20;;;16.10;99.90;;;;;;6246119;23;20176;-76
2021/08/08 04:34:30;;;;;;;4.97;0.87;;;16.20;99.90;;;;;;6246333;23;20198;-76
2021/08/08 04:36:57;;;;;;;2.00;1.07;;;16.10;99.90;;;;;;6245508;23;20234;-77
2021/08/08 04:39:24;;;;;;;2.83;0.70;;;16.20;99.90;;;;;;6245878;23;20195;-76
2021/08/08 04:41:52;;;;;;;4.47;0.97;;;16.20;99.90;;;;;;6245157;23;20589;-77
2021/08/08 04:44:18;;;;;;;3.30;1.03;;;16.10;99.90;;;;;;6245965;23;20623;-76
2021/08/08 04:46:45;;;;;;;5.63;0.93;;;16.10;99.90;;;;;;6246125;23;20182;-77
2021/08/08 04:49:12;;;;;;;3.03;1.10;;;16.20;99.90;;;;;;6245467;23;20207;-75
2021/08/08 04:51:41;;;;;;;8.73;1.53;;;16.20;99.90;;;;;;6245458;23;20183;-76
2021/08/08 04:54:09;;;;;;;6.63;1.57;;;16.30;99.90;;;;;;6245343;23;20182;-76
2021/08/08 04:56:36;;;;;;;5.87;1.77;;;16.20;99.90;;;;;;6245799;23;20180;-76
2021/08/08 04:59:02;;;;;;;6.90;1.00;;;16.20;99.90;;;;;;6245909;23;20202;-77
2021/08/08 05:01:30;;;;;;;4.90;2.00;;;16.20;99.90;;;;;;6245209;23;20670;-76
2021/08/08 05:03:57;;;;;;;5.77;1.07;;;16.20;99.90;;;;;;6245414;23;20206;-76
2021/08/08 05:06:24;;;;;;;4.30;1.10;;;16.10;99.90;;;;;;6245849;23;20179;-76
2021/08/08 05:08:52;;;;;;;2.13;0.70;;;16.00;99.90;;;;;;6245426;23;20196;-76
2021/08/08 05:11:19;;;;;;;5.27;1.27;;;15.90;99.90;;;;;;6245694;23;20175;-75
2021/08/08 05:13:46;;;;;;;4.70;0.93;;;15.90;99.90;;;;;;6245531;23;20179;-76
2021/08/08 05:16:14;;;;;;;6.37;1.40;;;16.00;99.90;;;;;;6245520;23;20225;-75
2021/08/08 05:18:41;;;;;;;4.73;1.10;;;16.00;99.90;;;;;;6245237;23;20215;-75
2021/08/08 05:21:08;;;;;;;3.70;1.40;;;16.20;99.90;;;;;;6246034;23;20239;-76
2021/08/08 05:23:36;;;;;;;6.23;1.13;;;16.30;99.90;;;;;;6245682;23;20187;-75
2021/08/08 05:26:05;;;;;;;5.37;1.37;;;16.30;99.90;;;;;;6244742;23;20635;-76
2021/08/08 05:28:32;;;;;;;6.67;0.90;;;16.30;99.90;;;;;;6245242;23;20200;-76
2021/08/08 05:30:59;;;;;;;3.87;0.90;;;16.30;99.90;;;;;;6245168;23;20183;-76
2021/08/08 05:33:26;;;;;;;2.17;1.03;;;16.20;99.90;;;;;;6245604;23;20179;-76
2021/08/08 05:35:53;;;;;;;1.90;0.80;;;16.20;99.90;;;;;;6244939;23;20179;-77
2021/08/08 05:38:20;;;;;;;4.07;1.73;;;16.10;99.90;;;;;;6244723;23;20195;-76
2021/08/08 05:40:47;;;;;;;4.33;1.13;;;16.30;99.90;;;;;;6245160;23;20726;-77
2021/08/08 05:43:15;;;;;;;7.00;1.10;;;16.40;99.90;;;;;;6244583;23;20214;-76
2021/08/08 05:45:46;;;;;;;6.63;1.50;;;16.50;99.90;;;;;;6244977;23;20175;-77
2021/08/08 05:48:13;;;;;;;3.87;1.27;;;16.40;99.90;;;;;;6244470;23;20553;-77
2021/08/08 05:50:39;;;;;;;5.80;1.00;;;16.50;99.90;;;;;;6244446;23;20689;-77
2021/08/08 05:53:06;;;;;;;6.43;1.40;;;16.80;99.90;;;;;;6245720;23;20176;-77
2021/08/08 05:55:35;;;;;;;5.23;1.33;;;16.90;99.90;;;;;;6244603;23;20176;-77
2021/08/08 05:58:02;;;;;;;4.23;1.00;;;16.90;99.90;;;;;;6244220;23;20180;-76
2021/08/08 06:00:30;;;;;;;7.67;1.07;;;16.90;99.90;;;;;;6244172;23;20184;-76
2021/08/08 06:02:57;;;;;;;5.50;1.10;;;17.00;99.90;;;;;;6244893;23;20209;-77
2021/08/08 06:05:23;;;;;;;4.20;1.13;;;16.90;99.90;;;;;;6245562;23;20176;-77
2021/08/08 06:07:50;;;;;;;11.33;1.17;;;17.00;99.90;;;;;;6245683;23;20182;-77
2021/08/08 06:10:17;;;;;;;4.30;1.10;;;17.10;99.90;;;;;;6244615;23;20227;-77
2021/08/08 06:12:44;;;;;;;4.93;0.80;;;17.20;99.90;;;;;;6244973;23;20176;-77
2021/08/08 06:15:11;;;;;;;2.83;0.83;;;17.60;99.90;;;;;;6246741;23;20181;-77
2021/08/08 06:17:39;;;;;;;3.33;1.37;;;18.10;99.90;;;;;;6247683;23;20175;-77
2021/08/08 06:20:07;;;;;;;4.50;0.77;;;18.10;99.90;;;;;;6246682;23;20202;-77
2021/08/08 06:22:34;;;;;;;5.10;1.10;;;18.00;99.90;;;;;;6246920;23;20209;-76
2021/08/08 06:25:01;;;;;;;6.17;0.90;;;17.80;99.90;;;;;;6246647;23;20180;-77
2021/08/08 06:27:28;;;;;;;4.73;1.00;;;18.00;99.90;;;;;;6246805;23;20179;-77
2021/08/08 06:29:55;;;;;;;4.83;0.80;;;18.00;99.90;;;;;;6246956;23;20202;-77
2021/08/08 06:32:22;;;;;;;5.63;1.10;;;17.70;99.90;;;;;;6246991;23;20175;-78
2021/08/08 06:34:50;;;;;;;8.20;1.20;;;18.10;99.90;;;;;;6246982;23;20176;-78
2021/08/08 06:37:17;;;;;;;2.70;0.90;;;18.80;99.90;;;;;;6246204;23;20176;-77
2021/08/08 06:39:43;;;;;;;1.65;0.70;;;19.40;99.90;;;;;;6245103;23;20195;-76
2021/08/08 06:42:10;;;;;;;4.85;1.60;;;19.50;99.90;;;;;;6246214;23;20203;-78
2021/08/08 06:44:37;;;;;;;3.53;0.93;;;19.50;99.90;;;;;;6247087;23;20175;-77
2021/08/08 06:47:04;;;;;;;2.60;1.00;;;19.70;99.90;;;;;;6246802;23;20182;-77
2021/08/08 06:49:31;;;;;;;1.88;0.73;;;19.70;99.90;;;;;;6246409;23;20274;-77
2021/08/08 06:51:59;;;;;;;4.35;1.10;;;19.60;99.90;;;;;;6246943;23;20653;-78
2021/08/08 06:54:26;;;;;;;4.97;0.95;;;19.70;99.90;;;;;;6245494;23;20179;-77
2021/08/08 06:56:53;;;;;;;7.20;1.35;;;19.50;99.90;;;;;;6246746;23;20180;-77
2021/08/08 06:59:20;;;;;;;3.72;1.20;;;19.40;99.90;;;;;;6246376;23;20199;-76
2021/08/08 07:01:46;;;;;;;4.13;1.27;;;19.70;99.90;;;;;;6246375;23;20186;-77
2021/08/08 07:04:13;;;;;;;4.85;1.20;;;19.90;99.90;;;;;;6246940;23;20176;-77
2021/08/08 07:06:40;;;;;;;8.38;1.60;;;19.60;99.90;;;;;;6246564;23;20211;-77
2021/08/08 07:09:09;;;;;;;4.85;1.25;;;19.50;99.90;;;;;;6246412;23;20195;-78
2021/08/08 07:11:36;;;;;;;5.25;1.13;;;19.30;99.90;;;;;;6246523;23;20179;-77
2021/08/08 07:14:03;;;;;;;4.47;1.10;;;19.00;99.90;;;;;;6245510;23;20262;-77
2021/08/08 07:16:30;;;;;;;3.23;1.17;;;18.70;99.90;;;;;;6246597;23;20176;-77
2021/08/08 07:18:56;;;;;;;6.60;1.30;;;18.60;99.90;;;;;;6245043;23;20214;-77
2021/08/08 07:21:23;;;;;;;4.43;1.57;;;18.50;99.90;;;;;;6246637;23;20176;-77
2021/08/08 07:23:50;;;;;;;7.97;1.40;;;18.40;99.90;;;;;;6246882;23;20211;-77
2021/08/08 07:26:18;;;;;;;3.30;0.80;;;18.40;99.90;;;;;;6245071;23;20182;-78
2021/08/08 07:28:45;;;;;;;3.30;1.20;;;18.50;99.90;;;;;;6245917;23;20191;-78
2021/08/08 07:31:11;;;;;;;3.40;0.90;;;18.50;99.90;;;;;;6246481;23;20212;-75
2021/08/08 07:33:38;;;;;;;4.43;1.70;;;18.40;99.90;;;;;;6246501;23;20175;-79
2021/08/08 07:36:05;;;;;;;5.37;1.30;;;18.30;99.90;;;;;;6246180;23;20180;-77
2021/08/08 07:38:32;;;;;;;2.73;0.77;;;18.20;99.90;;;;;;6246933;23;20201;-76
2021/08/08 07:40:59;;;;;;;5.30;1.43;;;18.10;99.90;;;;;;6247715;23;20175;-77
2021/08/08 07:43:27;;;;;;;3.20;1.13;;;18.20;99.90;;;;;;6247078;23;20207;-77
2021/08/08 07:45:53;;;;;;;4.83;1.07;;;18.20;99.90;;;;;;6246791;23;20176;-76
2021/08/08 07:48:20;;;;;;;6.83;1.33;;;18.30;99.90;;;;;;6247093;23;20506;-76
2021/08/08 07:50:47;;;;;;;8.77;1.13;;;18.50;99.90;;;;;;6247041;23;20176;-76
2021/08/08 07:53:14;;;;;;;5.97;1.17;;;18.70;99.90;;;;;;6247213;23;20507;-76
2021/08/08 07:55:40;;;;;;;3.97;0.93;;;18.50;99.90;;;;;;6246826;23;20639;-77
2021/08/08 07:58:07;;;;;;;2.37;0.90;;;18.50;99.90;;;;;;6247081;23;20176;-76
2021/08/08 08:00:35;;;;;;;4.23;1.10;;;18.40;99.90;;;;;;6247301;23;20181;-77
2021/08/08 08:03:02;;;;;;;2.07;0.73;;;18.40;99.90;;;;;;6246796;23;20526;-77
2021/08/08 08:05:29;;;;;;;5.77;1.33;;;18.40;99.90;;;;;;6246794;23;20619;-76
2021/08/08 08:07:55;;;;;;;1.90;0.70;;;18.50;99.90;;;;;;6246616;23;20186;-77
2021/08/08 08:10:22;;;;;;;4.60;0.90;;;18.70;99.90;;;;;;6246908;23;20180;-77
2021/08/08 08:12:49;;;;;;;3.40;0.70;;;18.80;99.90;;;;;;6246946;23;20564;-76
2021/08/08 08:15:16;;;;;;;5.53;1.00;;;18.90;99.90;;;;;;6247078;23;20182;-77
2021/08/08 08:17:44;;;;;;;2.33;0.90;;;19.00;99.90;;;;;;6247031;23;20182;-77
2021/08/08 08:20:12;;;;;;;2.30;0.90;;;19.10;99.90;;;;;;6246875;23;20196;-76
2021/08/08 08:22:39;;;;;;;3.67;0.90;;;19.20;99.90;;;;;;6246868;23;20210;-77
2021/08/08 08:25:07;;;;;;;5.55;1.17;;;19.50;99.90;;;;;;6246597;23;20182;-77
2021/08/08 08:27:34;;;;;;;8.00;2.20;;;19.70;99.90;;;;;;6246869;23;20176;-77
2021/08/08 08:30:01;;;;;;;5.10;1.08;;;19.70;99.90;;;;;;6246888;23;20493;-77
2021/08/08 08:32:27;;;;;;;1.90;0.70;;;19.80;99.90;;;;;;6246890;23;20182;-76
2021/08/08 08:35:01;;;;;;;2.83;1.00;;;19.50;99.90;;;;;;6246963;23;20175;-76
2021/08/08 08:37:27;;;;;;;3.42;0.98;;;19.50;99.90;;;;;;6246272;23;20241;-78
2021/08/08 08:39:54;;;;;;;2.63;1.20;;;19.40;99.90;;;;;;6246346;23;20196;-77
2021/08/08 08:42:23;;;;;;;5.07;1.45;;;19.60;99.90;;;;;;6246486;23;20242;-76
2021/08/08 08:44:53;;;;;;;1.48;0.70;;;19.30;99.90;;;;;;6246566;23;20186;-77
2021/08/08 08:47:21;;;;;;;3.97;1.05;;;19.30;99.90;;;;;;6246744;23;20176;-77
2021/08/08 08:49:49;;;;;;;3.63;1.00;;;19.40;99.90;;;;;;6246559;23;20207;-77
2021/08/08 08:52:22;;;;;;;4.07;1.40;;;19.70;99.90;;;;;;6246695;23;20176;-78
2021/08/08 08:54:49;;;;;;;5.20;1.10;;;19.70;99.90;;;;;;6246388;23;20176;-77
2021/08/08 08:57:16;;;;;;;2.95;0.82;;;19.70;99.90;;;;;;6245984;23;20179;-78
2021/08/08 08:59:44;;;;;;;2.40;0.65;;;19.80;99.90;;;;;;6246213;23;20196;-77
2021/08/08 09:02:11;;;;;;;3.05;0.95;;;19.80;99.90;;;;;;6246698;23;20179;-77
2021/08/08 09:04:38;;;;;;;3.67;0.88;;;20.20;99.90;;;;;;6246555;23;20207;-78
2021/08/08 09:07:05;;;;;;;2.67;0.60;;;20.10;99.90;;;;;;6246705;23;20175;-78
2021/08/08 09:09:35;;;;;;;2.63;0.88;;;20.20;99.90;;;;;;6245807;23;20678;-77
2021/08/08 09:12:01;;;;;;;2.65;0.70;;;20.40;99.90;;;;;;6246124;23;20180;-77
2021/08/08 09:14:28;;;;;;;3.25;0.80;;;20.50;99.90;;;;;;6246218;23;20176;-79
2021/08/08 09:16:56;;;;;;;5.38;0.80;;;20.60;99.90;;;;;;6246519;23;20175;-77
2021/08/08 09:19:24;;;;;;;1.95;0.70;;;20.80;99.90;;;;;;6246686;23;20258;-77
2021/08/08 09:21:51;;;;;;;2.63;0.80;;;21.10;99.90;;;;;;6246299;23;20480;-77
2021/08/08 09:24:27;;;;;;;3.08;1.02;;;21.80;99.90;;;;;;6245992;23;20211;-77
2021/08/08 09:27:04;;;;;;;1.92;0.90;;;22.20;99.90;;;;;;6246403;23;20175;-81
2021/08/08 09:29:31;;;;;;;7.38;1.05;;;22.40;99.90;;;;;;6245915;23;20583;-78
2021/08/08 09:31:59;;;;;;;2.53;0.80;;;22.40;99.90;;;;;;6246240;23;20175;-77
2021/08/08 09:34:28;;;;;;;3.38;0.73;;;22.00;99.90;;;;;;6245794;23;20184;-75
2021/08/08 09:36:57;;;;;;;2.50;0.70;;;22.00;99.90;;;;;;6245895;23;20559;-78
2021/08/08 09:39:28;;;;;;;2.33;0.70;;;21.90;99.90;;;;;;6245996;23;20206;-78
2021/08/08 09:42:10;;;;;;;3.50;0.77;;;21.80;99.90;;;;;;6246220;23;20176;-78
2021/08/08 09:44:37;;;;;;;2.60;0.98;;;22.00;99.90;;;;;;6246155;23;20208;-77
2021/08/08 09:47:05;;;;;;;4.30;0.70;;;22.00;99.90;;;;;;6246283;23;20181;-78
2021/08/08 09:49:32;;;;;;;2.92;0.70;;;21.80;99.90;;;;;;6246060;23;20195;-75
2021/08/08 09:51:59;;;;;;;2.22;0.80;;;21.90;99.90;;;;;;6245700;23;20186;-73
2021/08/08 09:54:36;;;;;;;4.93;0.90;;;22.10;99.90;;;;;;6245790;23;20179;-76
2021/08/08 09:57:04;;;;;;;1.10;0.50;;;22.30;99.90;;;;;;6245841;23;20206;-75
2021/08/08 09:59:32;;;;;;;1.40;0.80;;;22.40;99.90;;;;;;6245775;23;20196;-77
2021/08/08 10:01:59;;;;;;;2.90;0.70;;;22.10;99.90;;;;;;6246216;23;20175;-75
2021/08/08 10:04:26;;;;;;;1.85;0.68;;;21.70;99.90;;;;;;6246047;23;20229;-78
2021/08/08 10:06:54;;;;;;;1.88;0.60;;;21.50;99.90;;;;;;6245802;23;20176;-75
2021/08/08 10:09:22;;;;;;;3.03;1.00;;;21.30;99.90;;;;;;6245233;23;20253;-76
2021/08/08 10:11:52;;;;;;;1.20;0.50;;;21.50;99.90;;;;;;6245981;23;20183;-75
2021/08/08 10:14:21;;;;;;;2.83;0.93;;;21.60;99.90;;;;;;6245504;23;20176;-75
2021/08/08 10:16:50;;;;;;;3.70;0.65;;;21.60;99.90;;;;;;6246047;23;20187;-75
2021/08/08 10:19:19;;;;;;;3.83;1.25;;;21.60;99.90;;;;;;6245511;23;20204;-78
2021/08/08 10:21:47;;;;;;;1.15;0.50;;;21.60;99.90;;;;;;6245883;23;20183;-75
2021/08/08 10:24:17;;;;;;;1.15;0.60;;;21.20;99.90;;;;;;6246059;23;20257;-76
2021/08/08 10:26:44;;;;;;;2.40;0.70;;;21.30;99.90;;;;;;6245557;23;20176;-77
2021/08/08 10:29:12;;;;;;;3.80;0.80;;;21.40;99.90;;;;;;6245269;23;20195;-77
2021/08/08 10:31:39;;;;;;;2.38;0.85;;;21.00;99.90;;;;;;6245695;23;20182;-76
2021/08/08 10:34:07;;;;;;;1.33;0.60;;;20.80;99.90;;;;;;6245720;23;20180;-75
2021/08/08 10:36:35;;;;;;;2.97;0.82;;;20.70;99.90;;;;;;6245790;23;20180;-77
2021/08/08 10:39:11;;;;;;;2.90;0.70;;;20.70;99.90;;;;;;6245570;23;20203;-75
2021/08/08 10:41:38;;;;;;;6.93;1.02;;;20.90;99.90;;;;;;6246094;23;20175;-75
2021/08/08 10:44:10;;;;;;;4.38;1.30;;;21.00;99.90;;;;;;6245938;23;20207;-76
2021/08/08 10:46:47;;;;;;;2.92;0.68;;;21.10;99.90;;;;;;6245541;23;20704;-76
2021/08/08 10:49:26;;;;;;;2.20;0.80;;;20.90;99.90;;;;;;6245612;23;20195;-75
2021/08/08 10:51:59;;;;;;;3.35;1.23;;;20.50;99.90;;;;;;6245792;23;20179;-76
2021/08/08 10:54:25;;;;;;;3.45;0.73;;;20.50;99.90;;;;;;6245682;23;20179;-81
2021/08/08 10:56:52;;;;;;;3.40;0.73;;;20.90;99.90;;;;;;6245890;23;20176;-78
2021/08/08 10:59:20;;;;;;;3.80;0.85;;;21.10;99.90;;;;;;6245515;23;20523;-77
2021/08/08 11:02:06;;;;;;;1.30;0.60;;;21.00;99.90;;;;;;6246494;23;20179;-76
2021/08/08 11:04:34;;;;;;;3.40;0.70;;;21.20;99.90;;;;;;6247198;23;20210;-75
2021/08/08 11:07:03;;;;;;;1.70;0.60;;;21.10;99.90;;;;;;6247702;23;20176;-75
2021/08/08 11:09:30;;;;;;;1.63;0.57;;;21.00;99.90;;;;;;6247641;23;20195;-77
2021/08/08 11:11:57;;;;;;;1.90;0.70;;;21.00;99.90;;;;;;6247416;23;20649;-75
2021/08/08 11:14:25;;;;;;;1.10;0.57;;;21.10;99.90;;;;;;6247603;23;20179;-76
2021/08/08 11:16:59;;;;;;;2.33;0.55;;;21.10;99.90;;;;;;6247717;23;20195;-76
2021/08/08 11:19:33;;;;;;;3.72;0.73;;;21.00;99.90;;;;;;6248734;23;20682;-75
2021/08/08 11:22:08;;;;;;;5.05;0.70;;;21.10;99.90;;;;;;6247529;23;20627;-76
2021/08/08 11:24:35;;;;;;;2.85;0.50;;;21.40;99.90;;;;;;6247721;23;20213;-76
2021/08/08 11:27:02;;;;;;;2.47;0.73;;;21.40;99.90;;;;;;6247886;23;20188;-75
2021/08/08 11:29:29;;;;;;;2.10;0.63;;;21.60;99.90;;;;;;6247546;23;20213;-76
2021/08/08 11:32:00;;;;;;;2.50;0.60;;;21.70;99.90;;;;;;6247484;23;20176;-78
2021/08/08 11:34:27;;;;;;;4.30;0.90;;;21.70;99.90;;;;;;6247030;23;20187;-78
2021/08/08 11:36:56;;;;;;;1.73;0.63;;;21.70;99.90;;;;;;6247407;23;20503;-77
2021/08/08 11:39:30;;;;;;;1.70;0.60;;;21.80;99.90;;;;;;6247282;23;20195;-77
2021/08/08 11:42:01;;;;;;;4.78;0.55;;;21.80;99.90;;;;;;6247590;23;20182;-77
2021/08/08 11:44:37;;;;;;;2.33;0.80;;;21.80;99.90;;;;;;6247346;23;20207;-77
2021/08/08 11:47:04;;;;;;;1.77;0.50;;;21.90;99.90;;;;;;6247479;23;20183;-79
2021/08/08 11:49:43;;;;;;;0.90;0.50;;;21.90;99.90;;;;;;6247057;23;20201;-76
2021/08/08 11:52:15;;;;;;;1.05;0.73;;;22.10;99.90;;;;;;6247357;23;20176;-77
2021/08/08 11:54:43;;;;;;;2.47;0.45;;;22.00;99.90;;;;;;6247131;23;20182;-77
2021/08/08 11:57:10;;;;;;;2.60;0.80;;;21.90;99.90;;;;;;6247047;23;20175;-77
2021/08/08 11:59:38;;;;;;;1.50;0.70;;;22.00;99.90;;;;;;6246942;23;20202;-75
2021/08/08 12:02:07;;;;;;;1.75;0.60;;;22.20;99.90;;;;;;6247261;23;20176;-77
2021/08/08 12:04:36;;;;;;;3.78;0.88;;;22.30;99.90;;;;;;6247172;23;20213;-77
2021/08/08 12:07:04;;;;;;;2.53;0.80;;;22.30;99.90;;;;;;6246638;23;20627;-76
2021/08/08 12:09:34;;;;;;;1.27;0.77;;;22.20;99.90;;;;;;6246745;23;20196;-76
2021/08/08 12:12:01;;;;;;;1.58;0.45;;;22.30;99.90;;;;;;6247039;23;20182;-74
2021/08/08 12:14:33;;;;;;;1.30;0.70;;;22.20;99.90;;;;;;6247170;23;20202;-75
2021/08/08 12:17:02;;;;;;;2.80;0.70;;;22.00;99.90;;;;;;6247191;23;20175;-78
2021/08/08 12:19:30;;;;;;;1.10;0.57;;;22.00;99.90;;;;;;6246275;23;20736;-76
2021/08/08 12:22:02;;;;;;;2.25;0.80;;;21.90;99.90;;;;;;6247053;23;20180;-76
2021/08/08 12:24:34;;;;;;;1.23;0.60;;;21.90;99.90;;;;;;6246386;23;20720;-76
2021/08/08 12:27:01;;;;;;;1.42;0.50;;;22.00;99.90;;;;;;6246343;23;20635;-78
2021/08/08 12:29:33;;;;;;;1.85;0.80;;;22.30;99.90;;;;;;6246783;23;20195;-77
2021/08/08 12:32:08;;;;;;;1.85;0.80;;;22.50;99.90;;;;;;6246885;23;20187;-76
2021/08/08 12:34:35;;;;;;;1.67;0.70;;;22.50;99.90;;;;;;6246863;23;20209;-77
2021/08/08 12:37:03;;;;;;;0.57;0.40;;;22.20;99.90;;;;;;6246762;23;20239;-76
2021/08/08 12:39:30;;;;;;;2.08;0.60;;;21.80;99.90;;;;;;6246317;23;20493;-78
2021/08/08 12:41:58;;;;;;;1.98;0.60;;;21.60;99.90;;;;;;6246829;23;20176;-77
2021/08/08 12:44:32;;;;;;;1.77;0.65;;;21.50;99.90;;;;;;6246743;23;20211;-77
2021/08/08 12:47:04;;;;;;;4.50;0.77;;;21.70;99.90;;;;;;6246919;23;20175;-78
2021/08/08 12:49:35;;;;;;;1.90;0.73;;;21.90;99.90;;;;;;6246603;23;20202;-78
2021/08/08 12:52:02;;;;;;;1.85;0.70;;;22.00;99.90;;;;;;6246342;23;20180;-77